Terminal Aerodrome Forecast
Issued by NWS North Platte, NE

Home | Current Version | Previous Version | Text Only | Print | Product List | Glossary On
Versions: 1 2 3 4 5 6 7 8 9 10 11 12 13 14 15 16 17 18
000
FTUS43 KLBF 231500 AAB
TAFVTN
TAF AMD
KVTN 231546Z 2316/2412 07007KT P6SM OVC015
      TEMPO 2316/2318 -SHRA BKN008
     FM231800 14011KT 4SM -DZ BR OVC012
     FM240000 11010KT 2SM -DZ BR OVC004=

USA.gov is the U.S. government's official web portal to all federal, state and local government web resources and services.